sensor_id;sensor_type;location;lat;lon;timestamp;temperature;humidity
75281;HTU21D;63874;47.230;39.620;2022-10-16T00:01:22;7.93;61.94
75281;HTU21D;63874;47.230;39.620;2022-10-16T00:03:49;7.91;62.11
75281;HTU21D;63874;47.230;39.620;2022-10-16T00:06:17;7.89;62.06
75281;HTU21D;63874;47.230;39.620;2022-10-16T00:08:43;7.87;62.17
75281;HTU21D;63874;47.230;39.620;2022-10-16T00:11:13;7.86;62.08
75281;HTU21D;63874;47.230;39.620;2022-10-16T00:13:41;7.82;62.11
75281;HTU21D;63874;47.230;39.620;2022-10-16T00:16:08;7.81;62.17
75281;HTU21D;63874;47.230;39.620;2022-10-16T00:18:34;7.78;62.25
75281;HTU21D;63874;47.230;39.620;2022-10-16T00:21:08;7.78;62.28
75281;HTU21D;63874;47.230;39.620;2022-10-16T00:23:35;7.75;62.34
75281;HTU21D;63874;47.230;39.620;2022-10-16T00:26:06;7.70;62.53
75281;HTU21D;63874;47.230;39.620;2022-10-16T00:28:33;7.67;62.59
75281;HTU21D;63874;47.230;39.620;2022-10-16T00:31:11;7.64;62.63
75281;HTU21D;63874;47.230;39.620;2022-10-16T00:33:39;7.59;62.63
75281;HTU21D;63874;47.230;39.620;2022-10-16T00:36:06;7.60;62.82
75281;HTU21D;63874;47.230;39.620;2022-10-16T00:38:33;7.58;62.82
75281;HTU21D;63874;47.230;39.620;2022-10-16T00:40:59;7.53;62.89
75281;HTU21D;63874;47.230;39.620;2022-10-16T00:46:07;7.53;62.99
75281;HTU21D;63874;47.230;39.620;2022-10-16T00:48:36;7.46;63.12
75281;HTU21D;63874;47.230;39.620;2022-10-16T00:51:02;7.47;63.19
75281;HTU21D;63874;47.230;39.620;2022-10-16T00:53:28;7.42;63.18
75281;HTU21D;63874;47.230;39.620;2022-10-16T00:55:54;7.40;63.28
75281;HTU21D;63874;47.230;39.620;2022-10-16T00:58:21;7.39;63.36
75281;HTU21D;63874;47.230;39.620;2022-10-16T01:00:47;7.35;63.44
75281;HTU21D;63874;47.230;39.620;2022-10-16T01:03:31;7.34;63.68
75281;HTU21D;63874;47.230;39.620;2022-10-16T01:11:49;7.17;63.81
75281;HTU21D;63874;47.230;39.620;2022-10-16T01:14:43;7.13;64.08
75281;HTU21D;63874;47.230;39.620;2022-10-16T01:17:15;7.12;63.95
75281;HTU21D;63874;47.230;39.620;2022-10-16T01:20:01;7.13;64.19
75281;HTU21D;63874;47.230;39.620;2022-10-16T01:22:32;7.09;64.22
75281;HTU21D;63874;47.230;39.620;2022-10-16T01:24:59;7.03;64.20
75281;HTU21D;63874;47.230;39.620;2022-10-16T01:27:27;6.97;64.24
75281;HTU21D;63874;47.230;39.620;2022-10-16T01:30:38;6.94;64.47
75281;HTU21D;63874;47.230;39.620;2022-10-16T01:32:59;6.94;64.71
75281;HTU21D;63874;47.230;39.620;2022-10-16T01:35:35;6.91;64.63
75281;HTU21D;63874;47.230;39.620;2022-10-16T01:38:07;6.91;64.59
75281;HTU21D;63874;47.230;39.620;2022-10-16T01:40:35;6.93;64.65
75281;HTU21D;63874;47.230;39.620;2022-10-16T01:43:17;6.93;64.69
75281;HTU21D;63874;47.230;39.620;2022-10-16T01:45:45;6.94;64.72
75281;HTU21D;63874;47.230;39.620;2022-10-16T01:48:15;6.93;64.91
75281;HTU21D;63874;47.230;39.620;2022-10-16T01:50:44;6.93;64.79
75281;HTU21D;63874;47.230;39.620;2022-10-16T01:53:15;6.91;64.77
75281;HTU21D;63874;47.230;39.620;2022-10-16T01:55:46;6.94;64.98
75281;HTU21D;63874;47.230;39.620;2022-10-16T01:58:14;6.96;64.87
75281;HTU21D;63874;47.230;39.620;2022-10-16T02:00:43;6.98;64.88
75281;HTU21D;63874;47.230;39.620;2022-10-16T02:03:11;6.97;64.84
75281;HTU21D;63874;47.230;39.620;2022-10-16T02:05:39;6.97;64.93
75281;HTU21D;63874;47.230;39.620;2022-10-16T02:08:06;6.97;64.92
75281;HTU21D;63874;47.230;39.620;2022-10-16T02:10:34;6.94;65.01
75281;HTU21D;63874;47.230;39.620;2022-10-16T02:13:06;6.94;65.01
75281;HTU21D;63874;47.230;39.620;2022-10-16T02:15:32;6.94;65.00
75281;HTU21D;63874;47.230;39.620;2022-10-16T02:17:58;6.90;65.03
75281;HTU21D;63874;47.230;39.620;2022-10-16T02:20:27;6.89;65.14
75281;HTU21D;63874;47.230;39.620;2022-10-16T02:22:54;6.85;65.11
75281;HTU21D;63874;47.230;39.620;2022-10-16T02:25:32;6.85;65.23
75281;HTU21D;63874;47.230;39.620;2022-10-16T02:28:18;6.86;65.30
75281;HTU21D;63874;47.230;39.620;2022-10-16T02:30:50;6.85;65.37
75281;HTU21D;63874;47.230;39.620;2022-10-16T02:33:18;6.84;65.40
75281;HTU21D;63874;47.230;39.620;2022-10-16T02:35:46;6.80;65.43
75281;HTU21D;63874;47.230;39.620;2022-10-16T02:38:15;6.79;65.38
75281;HTU21D;63874;47.230;39.620;2022-10-16T02:40:42;6.78;65.50
75281;HTU21D;63874;47.230;39.620;2022-10-16T02:43:08;6.79;65.52
75281;HTU21D;63874;47.230;39.620;2022-10-16T02:45:35;6.74;65.52
75281;HTU21D;63874;47.230;39.620;2022-10-16T02:48:01;6.74;65.58
75281;HTU21D;63874;47.230;39.620;2022-10-16T02:50:27;6.73;65.64
75281;HTU21D;63874;47.230;39.620;2022-10-16T02:57:10;6.64;65.94
75281;HTU21D;63874;47.230;39.620;2022-10-16T03:08:08;6.43;66.24
75281;HTU21D;63874;47.230;39.620;2022-10-16T03:10:36;6.43;66.37
75281;HTU21D;63874;47.230;39.620;2022-10-16T03:13:05;6.44;66.45
75281;HTU21D;63874;47.230;39.620;2022-10-16T03:15:35;6.43;66.57
75281;HTU21D;63874;47.230;39.620;2022-10-16T03:18:09;6.42;66.49
75281;HTU21D;63874;47.230;39.620;2022-10-16T03:20:42;6.43;66.53
75281;HTU21D;63874;47.230;39.620;2022-10-16T03:54:44;6.38;66.86
75281;HTU21D;63874;47.230;39.620;2022-10-16T04:49:53;7.54;65.19
75281;HTU21D;63874;47.230;39.620;2022-10-16T04:52:39;7.59;65.07
75281;HTU21D;63874;47.230;39.620;2022-10-16T04:55:06;7.64;65.03
75281;HTU21D;63874;47.230;39.620;2022-10-16T04:57:32;7.72;64.75
75281;HTU21D;63874;47.230;39.620;2022-10-16T04:59:59;7.77;64.74
75281;HTU21D;63874;47.230;39.620;2022-10-16T05:02:25;7.85;64.54
75281;HTU21D;63874;47.230;39.620;2022-10-16T05:04:51;7.91;64.45
75281;HTU21D;63874;47.230;39.620;2022-10-16T05:07:17;8.01;64.14
75281;HTU21D;63874;47.230;39.620;2022-10-16T05:09:43;8.06;64.00
75281;HTU21D;63874;47.230;39.620;2022-10-16T05:12:09;8.12;63.95
75281;HTU21D;63874;47.230;39.620;2022-10-16T05:14:35;8.18;63.77
75281;HTU21D;63874;47.230;39.620;2022-10-16T05:17:01;8.26;63.50
75281;HTU21D;63874;47.230;39.620;2022-10-16T05:19:27;8.30;63.52
75281;HTU21D;63874;47.230;39.620;2022-10-16T05:21:53;8.37;63.27
75281;HTU21D;63874;47.230;39.620;2022-10-16T05:24:19;8.45;63.08
75281;HTU21D;63874;47.230;39.620;2022-10-16T05:26:45;8.49;62.92
75281;HTU21D;63874;47.230;39.620;2022-10-16T05:29:10;8.55;62.92
75281;HTU21D;63874;47.230;39.620;2022-10-16T05:31:36;8.61;62.76
75281;HTU21D;63874;47.230;39.620;2022-10-16T05:34:03;8.65;62.53
75281;HTU21D;63874;47.230;39.620;2022-10-16T05:36:29;8.73;62.22
75281;HTU21D;63874;47.230;39.620;2022-10-16T05:38:54;8.75;62.00
75281;HTU21D;63874;47.230;39.620;2022-10-16T05:41:20;8.78;61.93
75281;HTU21D;63874;47.230;39.620;2022-10-16T05:43:47;8.82;61.75
75281;HTU21D;63874;47.230;39.620;2022-10-16T05:46:14;8.85;61.65
75281;HTU21D;63874;47.230;39.620;2022-10-16T05:48:40;8.92;61.43
75281;HTU21D;63874;47.230;39.620;2022-10-16T05:51:08;8.93;61.38
75281;HTU21D;63874;47.230;39.620;2022-10-16T05:53:36;9.01;61.35
75281;HTU21D;63874;47.230;39.620;2022-10-16T05:56:03;9.07;60.96
75281;HTU21D;63874;47.230;39.620;2022-10-16T05:58:38;9.11;60.73
75281;HTU21D;63874;47.230;39.620;2022-10-16T06:01:14;9.17;60.65
75281;HTU21D;63874;47.230;39.620;2022-10-16T06:03:41;9.19;60.70
75281;HTU21D;63874;47.230;39.620;2022-10-16T06:06:19;9.26;60.59
75281;HTU21D;63874;47.230;39.620;2022-10-16T06:08:47;9.35;60.25
75281;HTU21D;63874;47.230;39.620;2022-10-16T06:11:18;9.38;60.35
75281;HTU21D;63874;47.230;39.620;2022-10-16T06:13:48;9.44;60.18
75281;HTU21D;63874;47.230;39.620;2022-10-16T06:16:14;9.50;60.29
75281;HTU21D;63874;47.230;39.620;2022-10-16T06:18:40;9.57;59.79
75281;HTU21D;63874;47.230;39.620;2022-10-16T06:21:16;9.65;59.57
75281;HTU21D;63874;47.230;39.620;2022-10-16T06:23:42;9.68;59.85
75281;HTU21D;63874;47.230;39.620;2022-10-16T06:26:11;9.81;59.59
75281;HTU21D;63874;47.230;39.620;2022-10-16T06:28:37;9.92;59.32
75281;HTU21D;63874;47.230;39.620;2022-10-16T06:31:05;10.00;58.70
75281;HTU21D;63874;47.230;39.620;2022-10-16T06:33:31;10.11;58.73
75281;HTU21D;63874;47.230;39.620;2022-10-16T06:36:05;10.26;58.22
75281;HTU21D;63874;47.230;39.620;2022-10-16T06:38:32;10.34;57.74
75281;HTU21D;63874;47.230;39.620;2022-10-16T06:40:58;10.41;57.69
75281;HTU21D;63874;47.230;39.620;2022-10-16T06:43:24;10.50;57.64
75281;HTU21D;63874;47.230;39.620;2022-10-16T06:45:55;10.58;57.49
75281;HTU21D;63874;47.230;39.620;2022-10-16T06:48:22;10.66;56.93
75281;HTU21D;63874;47.230;39.620;2022-10-16T06:53:21;10.80;56.47
75281;HTU21D;63874;47.230;39.620;2022-10-16T06:55:47;10.85;55.66
75281;HTU21D;63874;47.230;39.620;2022-10-16T06:58:12;10.82;56.16
75281;HTU21D;63874;47.230;39.620;2022-10-16T07:00:38;10.85;56.07
75281;HTU21D;63874;47.230;39.620;2022-10-16T07:03:04;10.90;56.09
75281;HTU21D;63874;47.230;39.620;2022-10-16T07:05:30;10.92;55.42
75281;HTU21D;63874;47.230;39.620;2022-10-16T07:07:56;10.92;55.61
75281;HTU21D;63874;47.230;39.620;2022-10-16T07:10:22;10.89;55.70
75281;HTU21D;63874;47.230;39.620;2022-10-16T07:12:49;10.93;55.97
75281;HTU21D;63874;47.230;39.620;2022-10-16T07:15:15;11.00;55.73
75281;HTU21D;63874;47.230;39.620;2022-10-16T07:17:41;11.03;55.00
75281;HTU21D;63874;47.230;39.620;2022-10-16T07:20:07;11.02;55.00
75281;HTU21D;63874;47.230;39.620;2022-10-16T07:22:33;11.04;55.33
75281;HTU21D;63874;47.230;39.620;2022-10-16T07:25:00;11.13;55.01
75281;HTU21D;63874;47.230;39.620;2022-10-16T07:27:26;11.20;54.93
75281;HTU21D;63874;47.230;39.620;2022-10-16T07:29:52;11.19;54.18
75281;HTU21D;63874;47.230;39.620;2022-10-16T07:32:18;11.18;54.31
75281;HTU21D;63874;47.230;39.620;2022-10-16T07:34:44;11.14;54.45
75281;HTU21D;63874;47.230;39.620;2022-10-16T07:37:11;11.17;54.53
75281;HTU21D;63874;47.230;39.620;2022-10-16T07:39:37;11.17;54.49
75281;HTU21D;63874;47.230;39.620;2022-10-16T07:42:03;11.23;54.52
75281;HTU21D;63874;47.230;39.620;2022-10-16T07:44:29;11.31;54.32
75281;HTU21D;63874;47.230;39.620;2022-10-16T07:46:55;11.40;53.93
75281;HTU21D;63874;47.230;39.620;2022-10-16T07:49:21;11.52;53.71
75281;HTU21D;63874;47.230;39.620;2022-10-16T07:51:47;11.64;53.20
75281;HTU21D;63874;47.230;39.620;2022-10-16T07:54:13;11.77;53.43
75281;HTU21D;63874;47.230;39.620;2022-10-16T07:56:39;11.97;53.07
75281;HTU21D;63874;47.230;39.620;2022-10-16T07:59:04;12.18;52.83
75281;HTU21D;63874;47.230;39.620;2022-10-16T08:01:30;12.38;52.31
75281;HTU21D;63874;47.230;39.620;2022-10-16T08:03:56;12.57;51.46
75281;HTU21D;63874;47.230;39.620;2022-10-16T08:06:22;12.66;51.17
75281;HTU21D;63874;47.230;39.620;2022-10-16T08:08:49;12.73;51.01
75281;HTU21D;63874;47.230;39.620;2022-10-16T08:11:14;12.81;50.23
75281;HTU21D;63874;47.230;39.620;2022-10-16T08:13:41;12.88;50.28
75281;HTU21D;63874;47.230;39.620;2022-10-16T08:16:08;12.97;49.85
75281;HTU21D;63874;47.230;39.620;2022-10-16T08:18:39;13.14;50.03
75281;HTU21D;63874;47.230;39.620;2022-10-16T08:21:07;13.25;49.25
75281;HTU21D;63874;47.230;39.620;2022-10-16T08:23:33;13.31;48.72
75281;HTU21D;63874;47.230;39.620;2022-10-16T08:26:05;13.37;48.28
75281;HTU21D;63874;47.230;39.620;2022-10-16T08:28:31;13.41;48.17
75281;HTU21D;63874;47.230;39.620;2022-10-16T08:31:08;13.45;48.11
75281;HTU21D;63874;47.230;39.620;2022-10-16T08:33:35;13.50;47.76
75281;HTU21D;63874;47.230;39.620;2022-10-16T08:36:02;13.59;47.61
75281;HTU21D;63874;47.230;39.620;2022-10-16T08:38:27;13.65;47.39
75281;HTU21D;63874;47.230;39.620;2022-10-16T08:46:43;13.76;46.69
75281;HTU21D;63874;47.230;39.620;2022-10-16T08:49:13;13.75;47.08
75281;HTU21D;63874;47.230;39.620;2022-10-16T08:51:39;13.75;46.55
75281;HTU21D;63874;47.230;39.620;2022-10-16T08:56:47;13.70;46.50
75281;HTU21D;63874;47.230;39.620;2022-10-16T08:59:14;13.74;45.96
75281;HTU21D;63874;47.230;39.620;2022-10-16T09:01:45;13.85;46.41
75281;HTU21D;63874;47.230;39.620;2022-10-16T09:12:38;14.66;44.00
75281;HTU21D;63874;47.230;39.620;2022-10-16T09:17:58;15.47;43.48
75281;HTU21D;63874;47.230;39.620;2022-10-16T09:20:51;16.01;43.00
75281;HTU21D;63874;47.230;39.620;2022-10-16T09:23:26;16.96;42.69
75281;HTU21D;63874;47.230;39.620;2022-10-16T09:25:53;17.81;39.85
75281;HTU21D;63874;47.230;39.620;2022-10-16T09:28:19;17.88;38.30
75281;HTU21D;63874;47.230;39.620;2022-10-16T09:30:46;17.40;38.44
75281;HTU21D;63874;47.230;39.620;2022-10-16T09:33:14;17.22;39.27
75281;HTU21D;63874;47.230;39.620;2022-10-16T09:35:52;17.40;38.25
75281;HTU21D;63874;47.230;39.620;2022-10-16T09:38:30;17.61;38.75
75281;HTU21D;63874;47.230;39.620;2022-10-16T09:40:58;18.30;36.94
75281;HTU21D;63874;47.230;39.620;2022-10-16T09:46:05;17.99;36.40
75281;HTU21D;63874;47.230;39.620;2022-10-16T09:48:44;17.56;37.17
75281;HTU21D;63874;47.230;39.620;2022-10-16T09:51:22;17.30;37.98
75281;HTU21D;63874;47.230;39.620;2022-10-16T09:53:49;17.23;38.11
75281;HTU21D;63874;47.230;39.620;2022-10-16T09:56:26;17.13;38.43
75281;HTU21D;63874;47.230;39.620;2022-10-16T09:58:54;17.44;38.75
75281;HTU21D;63874;47.230;39.620;2022-10-16T10:01:22;17.70;37.14
75281;HTU21D;63874;47.230;39.620;2022-10-16T10:03:49;17.50;37.05
75281;HTU21D;63874;47.230;39.620;2022-10-16T10:06:28;17.13;37.80
75281;HTU21D;63874;47.230;39.620;2022-10-16T10:08:59;16.88;38.23
75281;HTU21D;63874;47.230;39.620;2022-10-16T10:11:52;16.70;38.80
75281;HTU21D;63874;47.230;39.620;2022-10-16T10:17:01;16.59;39.14
75281;HTU21D;63874;47.230;39.620;2022-10-16T10:19:28;16.46;39.18
75281;HTU21D;63874;47.230;39.620;2022-10-16T10:21:54;16.30;39.41
75281;HTU21D;63874;47.230;39.620;2022-10-16T10:24:20;16.15;39.34
75281;HTU21D;63874;47.230;39.620;2022-10-16T10:26:59;15.77;39.75
75281;HTU21D;63874;47.230;39.620;2022-10-16T10:29:35;15.43;40.56
75281;HTU21D;63874;47.230;39.620;2022-10-16T10:32:22;15.19;40.97
75281;HTU21D;63874;47.230;39.620;2022-10-16T10:41:20;15.15;41.40
75281;HTU21D;63874;47.230;39.620;2022-10-16T10:44:20;15.06;41.94
75281;HTU21D;63874;47.230;39.620;2022-10-16T10:46:57;15.04;42.46
75281;HTU21D;63874;47.230;39.620;2022-10-16T10:52:09;15.25;42.58
75281;HTU21D;63874;47.230;39.620;2022-10-16T10:54:50;15.31;41.93
75281;HTU21D;63874;47.230;39.620;2022-10-16T10:58:14;15.30;42.23
75281;HTU21D;63874;47.230;39.620;2022-10-16T11:00:35;15.33;42.20
75281;HTU21D;63874;47.230;39.620;2022-10-16T11:06:08;15.31;41.98
75281;HTU21D;63874;47.230;39.620;2022-10-16T11:08:47;15.31;41.93
75281;HTU21D;63874;47.230;39.620;2022-10-16T11:11:22;15.30;41.91
75281;HTU21D;63874;47.230;39.620;2022-10-16T11:17:23;15.44;41.64
75281;HTU21D;63874;47.230;39.620;2022-10-16T11:19:53;15.34;41.42
75281;HTU21D;63874;47.230;39.620;2022-10-16T11:22:30;15.14;41.71
75281;HTU21D;63874;47.230;39.620;2022-10-16T11:25:28;14.96;41.90
75281;HTU21D;63874;47.230;39.620;2022-10-16T11:28:17;14.88;42.31
75281;HTU21D;63874;47.230;39.620;2022-10-16T11:30:54;14.80;42.39
75281;HTU21D;63874;47.230;39.620;2022-10-16T11:46:46;14.51;42.87
75281;HTU21D;63874;47.230;39.620;2022-10-16T11:49:22;14.44;42.93
75281;HTU21D;63874;47.230;39.620;2022-10-16T11:52:02;14.36;42.75
75281;HTU21D;63874;47.230;39.620;2022-10-16T11:57:34;14.28;42.81
75281;HTU21D;63874;47.230;39.620;2022-10-16T12:00:33;14.22;42.88
75281;HTU21D;63874;47.230;39.620;2022-10-16T12:03:22;14.12;42.98
75281;HTU21D;63874;47.230;39.620;2022-10-16T12:08:35;14.09;43.51
75281;HTU21D;63874;47.230;39.620;2022-10-16T12:14:22;14.09;43.58
75281;HTU21D;63874;47.230;39.620;2022-10-16T12:19:28;14.06;43.87
75281;HTU21D;63874;47.230;39.620;2022-10-16T12:21:56;14.04;43.77
75281;HTU21D;63874;47.230;39.620;2022-10-16T12:24:37;14.05;43.97
75281;HTU21D;63874;47.230;39.620;2022-10-16T12:27:30;14.07;43.84
75281;HTU21D;63874;47.230;39.620;2022-10-16T12:30:02;14.08;44.03
75281;HTU21D;63874;47.230;39.620;2022-10-16T12:32:32;14.12;44.16
75281;HTU21D;63874;47.230;39.620;2022-10-16T12:35:00;14.13;44.24
75281;HTU21D;63874;47.230;39.620;2022-10-16T12:37:35;14.14;44.25
75281;HTU21D;63874;47.230;39.620;2022-10-16T12:40:14;14.14;44.43
75281;HTU21D;63874;47.230;39.620;2022-10-16T12:42:43;14.15;44.52
75281;HTU21D;63874;47.230;39.620;2022-10-16T12:45:29;14.20;44.56
75281;HTU21D;63874;47.230;39.620;2022-10-16T12:48:17;14.22;44.42
75281;HTU21D;63874;47.230;39.620;2022-10-16T12:50:44;14.24;44.22
75281;HTU21D;63874;47.230;39.620;2022-10-16T12:58:54;14.05;44.60
75281;HTU21D;63874;47.230;39.620;2022-10-16T13:01:51;14.00;44.74
75281;HTU21D;63874;47.230;39.620;2022-10-16T13:07:06;13.82;45.03
75281;HTU21D;63874;47.230;39.620;2022-10-16T13:09:52;13.73;45.27
75281;HTU21D;63874;47.230;39.620;2022-10-16T13:12:35;13.64;45.50
75281;HTU21D;63874;47.230;39.620;2022-10-16T13:18:07;13.51;45.83
75281;HTU21D;63874;47.230;39.620;2022-10-16T13:23:32;13.44;46.07
75281;HTU21D;63874;47.230;39.620;2022-10-16T13:28:59;13.40;46.16
75281;HTU21D;63874;47.230;39.620;2022-10-16T13:31:26;13.38;46.22
75281;HTU21D;63874;47.230;39.620;2022-10-16T13:33:55;13.35;46.28
75281;HTU21D;63874;47.230;39.620;2022-10-16T13:36:30;13.36;46.26
75281;HTU21D;63874;47.230;39.620;2022-10-16T13:39:48;13.39;46.25
75281;HTU21D;63874;47.230;39.620;2022-10-16T13:42:12;13.35;46.35
75281;HTU21D;63874;47.230;39.620;2022-10-16T13:44:44;13.31;46.32
75281;HTU21D;63874;47.230;39.620;2022-10-16T13:47:26;13.23;46.28
75281;HTU21D;63874;47.230;39.620;2022-10-16T13:52:25;13.17;46.42
75281;HTU21D;63874;47.230;39.620;2022-10-16T13:54:51;13.11;46.62
75281;HTU21D;63874;47.230;39.620;2022-10-16T13:57:17;13.12;46.60
75281;HTU21D;63874;47.230;39.620;2022-10-16T13:59:44;13.10;46.62
75281;HTU21D;63874;47.230;39.620;2022-10-16T14:04:53;13.06;46.77
75281;HTU21D;63874;47.230;39.620;2022-10-16T14:07:24;13.03;46.75
75281;HTU21D;63874;47.230;39.620;2022-10-16T14:09:52;13.02;46.73
75281;HTU21D;63874;47.230;39.620;2022-10-16T14:12:18;12.96;46.94
75281;HTU21D;63874;47.230;39.620;2022-10-16T14:14:47;12.96;47.01
75281;HTU21D;63874;47.230;39.620;2022-10-16T14:17:24;12.95;47.03
75281;HTU21D;63874;47.230;39.620;2022-10-16T14:19:56;12.93;47.17
75281;HTU21D;63874;47.230;39.620;2022-10-16T14:24:58;12.84;47.38
75281;HTU21D;63874;47.230;39.620;2022-10-16T14:27:33;12.79;47.54
75281;HTU21D;63874;47.230;39.620;2022-10-16T14:30:16;12.76;47.63
75281;HTU21D;63874;47.230;39.620;2022-10-16T14:35:33;12.71;47.82
75281;HTU21D;63874;47.230;39.620;2022-10-16T14:38:01;12.70;47.88
75281;HTU21D;63874;47.230;39.620;2022-10-16T14:40:33;12.69;48.05
75281;HTU21D;63874;47.230;39.620;2022-10-16T14:43:01;12.65;48.12
75281;HTU21D;63874;47.230;39.620;2022-10-16T14:45:29;12.64;48.21
75281;HTU21D;63874;47.230;39.620;2022-10-16T14:47:58;12.65;48.30
75281;HTU21D;63874;47.230;39.620;2022-10-16T14:50:25;12.67;48.32
75281;HTU21D;63874;47.230;39.620;2022-10-16T14:52:51;12.63;48.46
75281;HTU21D;63874;47.230;39.620;2022-10-16T14:55:17;12.62;48.73
75281;HTU21D;63874;47.230;39.620;2022-10-16T14:57:44;12.61;48.78
75281;HTU21D;63874;47.230;39.620;2022-10-16T15:00:21;12.57;48.86
75281;HTU21D;63874;47.230;39.620;2022-10-16T15:02:48;12.58;49.07
75281;HTU21D;63874;47.230;39.620;2022-10-16T15:07:46;12.52;49.75
75281;HTU21D;63874;47.230;39.620;2022-10-16T15:10:13;12.51;49.81
75281;HTU21D;63874;47.230;39.620;2022-10-16T15:12:39;12.48;49.92
75281;HTU21D;63874;47.230;39.620;2022-10-16T15:17:41;12.45;50.30
75281;HTU21D;63874;47.230;39.620;2022-10-16T15:20:07;12.43;50.24
75281;HTU21D;63874;47.230;39.620;2022-10-16T15:22:33;12.40;50.27
75281;HTU21D;63874;47.230;39.620;2022-10-16T15:24:59;12.35;50.27
75281;HTU21D;63874;47.230;39.620;2022-10-16T15:27:25;12.32;50.45
75281;HTU21D;63874;47.230;39.620;2022-10-16T15:29:51;12.23;50.24
75281;HTU21D;63874;47.230;39.620;2022-10-16T15:32:16;12.16;50.67
75281;HTU21D;63874;47.230;39.620;2022-10-16T15:34:42;12.13;50.63
75281;HTU21D;63874;47.230;39.620;2022-10-16T15:37:08;12.04;51.12
75281;HTU21D;63874;47.230;39.620;2022-10-16T15:39:35;12.05;51.53
75281;HTU21D;63874;47.230;39.620;2022-10-16T15:42:00;12.06;51.62
75281;HTU21D;63874;47.230;39.620;2022-10-16T15:44:26;12.08;51.65
75281;HTU21D;63874;47.230;39.620;2022-10-16T15:46:55;12.12;51.64
75281;HTU21D;63874;47.230;39.620;2022-10-16T15:49:22;12.15;51.51
75281;HTU21D;63874;47.230;39.620;2022-10-16T15:51:48;12.18;51.46
75281;HTU21D;63874;47.230;39.620;2022-10-16T15:54:14;12.15;51.51
75281;HTU21D;63874;47.230;39.620;2022-10-16T15:56:39;12.14;51.56
75281;HTU21D;63874;47.230;39.620;2022-10-16T15:59:05;12.14;51.50
75281;HTU21D;63874;47.230;39.620;2022-10-16T16:01:35;12.14;51.53
75281;HTU21D;63874;47.230;39.620;2022-10-16T16:04:01;12.12;51.51
75281;HTU21D;63874;47.230;39.620;2022-10-16T16:06:27;12.10;51.62
75281;HTU21D;63874;47.230;39.620;2022-10-16T16:08:54;12.08;51.60
75281;HTU21D;63874;47.230;39.620;2022-10-16T16:11:20;12.05;51.66
75281;HTU21D;63874;47.230;39.620;2022-10-16T16:13:47;12.04;51.75
75281;HTU21D;63874;47.230;39.620;2022-10-16T16:16:15;12.01;51.87
75281;HTU21D;63874;47.230;39.620;2022-10-16T16:18:42;11.97;51.93
75281;HTU21D;63874;47.230;39.620;2022-10-16T16:21:10;11.96;51.89
75281;HTU21D;63874;47.230;39.620;2022-10-16T16:23:36;11.90;51.98
75281;HTU21D;63874;47.230;39.620;2022-10-16T16:26:25;11.86;52.04
75281;HTU21D;63874;47.230;39.620;2022-10-16T16:28:53;11.78;52.17
75281;HTU21D;63874;47.230;39.620;2022-10-16T16:31:19;11.73;52.27
75281;HTU21D;63874;47.230;39.620;2022-10-16T16:33:46;11.67;52.35
75281;HTU21D;63874;47.230;39.620;2022-10-16T16:36:13;11.59;52.51
75281;HTU21D;63874;47.230;39.620;2022-10-16T16:38:39;11.57;52.69
75281;HTU21D;63874;47.230;39.620;2022-10-16T16:41:19;11.52;52.75
75281;HTU21D;63874;47.230;39.620;2022-10-16T16:43:45;11.51;52.77
75281;HTU21D;63874;47.230;39.620;2022-10-16T16:46:13;11.48;52.83
75281;HTU21D;63874;47.230;39.620;2022-10-16T16:48:40;11.45;52.90
75281;HTU21D;63874;47.230;39.620;2022-10-16T16:51:08;11.42;52.96
75281;HTU21D;63874;47.230;39.620;2022-10-16T16:53:35;11.40;53.02
75281;HTU21D;63874;47.230;39.620;2022-10-16T16:56:02;11.39;52.86
75281;HTU21D;63874;47.230;39.620;2022-10-16T16:58:28;11.32;52.91
75281;HTU21D;63874;47.230;39.620;2022-10-16T17:00:54;11.29;53.14
75281;HTU21D;63874;47.230;39.620;2022-10-16T17:03:20;11.28;53.20
75281;HTU21D;63874;47.230;39.620;2022-10-16T17:06:00;11.25;53.27
75281;HTU21D;63874;47.230;39.620;2022-10-16T17:08:27;11.24;53.07
75281;HTU21D;63874;47.230;39.620;2022-10-16T17:10:54;11.20;52.68
75281;HTU21D;63874;47.230;39.620;2022-10-16T17:13:29;11.15;53.04
75281;HTU21D;63874;47.230;39.620;2022-10-16T17:15:55;11.16;53.17
75281;HTU21D;63874;47.230;39.620;2022-10-16T17:18:23;11.14;53.16
75281;HTU21D;63874;47.230;39.620;2022-10-16T17:20:50;11.15;53.18
75281;HTU21D;63874;47.230;39.620;2022-10-16T17:23:18;11.16;52.97
75281;HTU21D;63874;47.230;39.620;2022-10-16T17:25:45;11.16;53.05
75281;HTU21D;63874;47.230;39.620;2022-10-16T17:28:12;11.20;53.10
75281;HTU21D;63874;47.230;39.620;2022-10-16T17:30:40;11.20;53.00
75281;HTU21D;63874;47.230;39.620;2022-10-16T17:33:08;11.25;53.03
75281;HTU21D;63874;47.230;39.620;2022-10-16T17:38:04;11.27;52.63
75281;HTU21D;63874;47.230;39.620;2022-10-16T17:40:30;11.26;52.01
75281;HTU21D;63874;47.230;39.620;2022-10-16T17:42:56;11.23;52.33
75281;HTU21D;63874;47.230;39.620;2022-10-16T17:45:22;11.16;52.18
75281;HTU21D;63874;47.230;39.620;2022-10-16T17:47:47;11.11;52.42
75281;HTU21D;63874;47.230;39.620;2022-10-16T17:50:13;11.10;52.49
75281;HTU21D;63874;47.230;39.620;2022-10-16T17:52:40;11.08;52.54
75281;HTU21D;63874;47.230;39.620;2022-10-16T17:55:07;11.08;52.62
75281;HTU21D;63874;47.230;39.620;2022-10-16T17:57:33;11.05;52.64
75281;HTU21D;63874;47.230;39.620;2022-10-16T17:59:59;11.05;52.85
75281;HTU21D;63874;47.230;39.620;2022-10-16T18:02:30;11.07;52.85
75281;HTU21D;63874;47.230;39.620;2022-10-16T18:04:56;11.07;52.80
75281;HTU21D;63874;47.230;39.620;2022-10-16T18:07:23;11.08;52.78
75281;HTU21D;63874;47.230;39.620;2022-10-16T18:09:49;11.09;52.70
75281;HTU21D;63874;47.230;39.620;2022-10-16T18:12:15;11.10;52.57
75281;HTU21D;63874;47.230;39.620;2022-10-16T18:14:41;11.08;52.59
75281;HTU21D;63874;47.230;39.620;2022-10-16T18:17:07;11.07;52.45
75281;HTU21D;63874;47.230;39.620;2022-10-16T18:19:33;11.03;52.46
75281;HTU21D;63874;47.230;39.620;2022-10-16T18:21:58;11.00;52.46
75281;HTU21D;63874;47.230;39.620;2022-10-16T18:24:25;10.99;52.37
75281;HTU21D;63874;47.230;39.620;2022-10-16T18:26:52;10.97;52.18
75281;HTU21D;63874;47.230;39.620;2022-10-16T18:29:25;10.95;52.11
75281;HTU21D;63874;47.230;39.620;2022-10-16T18:31:52;10.90;52.14
75281;HTU21D;63874;47.230;39.620;2022-10-16T18:34:18;10.85;52.22
75281;HTU21D;63874;47.230;39.620;2022-10-16T18:36:45;10.83;52.27
75281;HTU21D;63874;47.230;39.620;2022-10-16T18:39:11;10.80;52.33
75281;HTU21D;63874;47.230;39.620;2022-10-16T18:41:39;10.73;52.47
75281;HTU21D;63874;47.230;39.620;2022-10-16T18:44:06;10.70;52.56
75281;HTU21D;63874;47.230;39.620;2022-10-16T18:46:33;10.69;52.56
75281;HTU21D;63874;47.230;39.620;2022-10-16T18:48:59;10.66;52.57
75281;HTU21D;63874;47.230;39.620;2022-10-16T18:53:58;10.58;52.69